Time;durP1;ratioP1;P1;durP2;ratioP2;P2;SDS_P1;SDS_P2;PMS_P1;PMS_P2;Temp;Humidity;BMP_temperature;BMP_pressure;BME280_temperature;BME280_humidity;BME280_pressure;Samples;Min_cycle;Max_cycle;Signal;HPM_P1;HPM_P2
2022/05/20 00:02:25;;;;;;;6.97;3.88;;;;;;;;;;5018318;28;20046;-83
2022/05/20 00:05:10;;;;;;;5.75;3.67;;;;;;;;;;5005537;28;20107;-83
2022/05/20 00:07:56;;;;;;;4.85;3.22;;;;;;;;;;5005496;28;20048;-83
2022/05/20 00:10:42;;;;;;;4.53;3.35;;;;;;;;;;5018360;28;20038;-84
2022/05/20 00:13:28;;;;;;;6.07;3.85;;;;;;;;;;5018397;28;20041;-83
2022/05/20 00:16:15;;;;;;;5.30;3.47;;;;;;;;;;5004992;28;20048;-83
2022/05/20 00:19:05;;;;;;;4.50;3.53;;;;;;;;;;5012852;28;20057;-83
2022/05/20 00:21:51;;;;;;;4.90;3.70;;;;;;;;;;5025645;28;20056;-83
2022/05/20 00:25:45;;;;;;;6.05;3.85;;;;;;;;;;5036926;28;20053;-83
2022/05/20 00:27:42;;;;;;;5.13;3.47;;;;;;;;;;5039689;28;20051;-83
2022/05/20 00:30:28;;;;;;;6.28;4.43;;;;;;;;;;5023106;28;20064;-83
2022/05/20 00:33:15;;;;;;;5.47;4.03;;;;;;;;;;5036526;28;20551;-83
2022/05/20 00:36:01;;;;;;;5.43;3.90;;;;;;;;;;5010443;28;20077;-83
2022/05/20 00:38:46;;;;;;;5.35;3.97;;;;;;;;;;5009815;28;20040;-84
2022/05/20 00:41:33;;;;;;;6.15;4.25;;;;;;;;;;5036432;28;20052;-83
2022/05/20 00:44:19;;;;;;;5.75;4.15;;;;;;;;;;5023211;28;20044;-83
2022/05/20 00:47:04;;;;;;;4.53;3.95;;;;;;;;;;5024254;28;20045;-83
2022/05/20 00:49:52;;;;;;;5.85;3.92;;;;;;;;;;5014412;28;20049;-83
2022/05/20 00:52:38;;;;;;;5.85;3.65;;;;;;;;;;5024337;28;20037;-83
2022/05/20 00:55:24;;;;;;;6.97;3.67;;;;;;;;;;5016695;28;20045;-83
2022/05/20 00:58:13;;;;;;;6.22;4.00;;;;;;;;;;5018465;28;20056;-83
2022/05/20 01:00:58;;;;;;;5.78;4.75;;;;;;;;;;5018180;28;20045;-84
2022/05/20 01:03:44;;;;;;;4.70;3.72;;;;;;;;;;5018012;28;20045;-83
2022/05/20 01:06:30;;;;;;;5.45;4.20;;;;;;;;;;5016475;28;20588;-82
2022/05/20 01:09:17;;;;;;;5.57;3.85;;;;;;;;;;5017870;28;20064;-84
2022/05/20 01:12:03;;;;;;;4.68;3.63;;;;;;;;;;5017980;28;20041;-84
2022/05/20 01:14:49;;;;;;;4.45;3.83;;;;;;;;;;5017166;28;20585;-83
2022/05/20 01:17:36;;;;;;;5.93;3.92;;;;;;;;;;5017697;28;20056;-83
2022/05/20 01:20:30;;;;;;;4.75;4.22;;;;;;;;;;5024005;28;20045;-84
2022/05/20 01:23:18;;;;;;;5.18;4.03;;;;;;;;;;5023129;28;20419;-83
2022/05/20 01:26:04;;;;;;;4.40;3.95;;;;;;;;;;5023543;28;20084;-83
2022/05/20 01:28:50;;;;;;;5.30;4.18;;;;;;;;;;5023057;28;20052;-84
2022/05/20 01:31:36;;;;;;;5.90;3.92;;;;;;;;;;5035662;28;20052;-84
2022/05/20 01:34:22;;;;;;;7.72;3.95;;;;;;;;;;5035511;28;20040;-83
2022/05/20 01:37:07;;;;;;;6.65;4.22;;;;;;;;;;5023013;28;20068;-83
2022/05/20 01:39:54;;;;;;;4.97;4.20;;;;;;;;;;5035546;28;20044;-83
2022/05/20 01:42:45;;;;;;;5.15;4.10;;;;;;;;;;5023356;28;20094;-83
2022/05/20 01:45:56;;;;;;;4.93;3.72;;;;;;;;;;5023380;28;20080;-83
2022/05/20 01:49:16;;;;;;;5.47;3.85;;;;;;;;;;5008977;28;20504;-83
2022/05/20 01:52:20;;;;;;;5.72;4.20;;;;;;;;;;5036894;28;20045;-84
2022/05/20 01:55:18;;;;;;;5.63;4.18;;;;;;;;;;5035803;28;20087;-84
2022/05/20 01:58:21;;;;;;;7.32;4.15;;;;;;;;;;5022992;28;20430;-84
2022/05/20 02:01:11;;;;;;;7.15;4.82;;;;;;;;;;5037222;28;20461;-84
2022/05/20 02:03:58;;;;;;;5.13;4.10;;;;;;;;;;5023141;28;20045;-83
2022/05/20 02:06:45;;;;;;;5.32;3.97;;;;;;;;;;5036961;28;20098;-84
2022/05/20 02:09:33;;;;;;;7.15;4.30;;;;;;;;;;5023284;28;20103;-84
2022/05/20 02:12:20;;;;;;;7.07;4.00;;;;;;;;;;5037032;28;20045;-84
2022/05/20 02:15:25;;;;;;;6.22;4.22;;;;;;;;;;5022857;28;20037;-84
2022/05/20 02:18:13;;;;;;;6.15;4.03;;;;;;;;;;5024333;28;20037;-83
2022/05/20 02:21:05;;;;;;;7.07;4.60;;;;;;;;;;5007848;28;20439;-84
2022/05/20 02:23:55;;;;;;;5.97;4.35;;;;;;;;;;5007693;28;20042;-83
2022/05/20 02:26:47;;;;;;;5.90;4.20;;;;;;;;;;5007474;28;20527;-83
2022/05/20 02:29:39;;;;;;;5.28;4.18;;;;;;;;;;5008049;28;20124;-83
2022/05/20 02:32:36;;;;;;;5.88;4.18;;;;;;;;;;5007754;28;20053;-83
2022/05/20 02:35:22;;;;;;;6.18;4.35;;;;;;;;;;5008611;28;20140;-83
2022/05/20 02:38:11;;;;;;;4.22;3.38;;;;;;;;;;5007476;28;20052;-83
2022/05/20 02:40:56;;;;;;;5.13;3.90;;;;;;;;;;5020975;28;20042;-83
2022/05/20 02:43:43;;;;;;;5.13;3.92;;;;;;;;;;5024767;28;20075;-83
2022/05/20 02:46:29;;;;;;;5.20;3.92;;;;;;;;;;5012762;28;20045;-83
2022/05/20 02:49:14;;;;;;;4.82;3.90;;;;;;;;;;5027532;28;20059;-83
2022/05/20 02:52:00;;;;;;;4.72;3.97;;;;;;;;;;4994527;28;20209;-83
2022/05/20 02:54:46;;;;;;;4.88;3.45;;;;;;;;;;5006444;28;20076;-83
2022/05/20 02:57:31;;;;;;;5.32;3.80;;;;;;;;;;5006107;28;20103;-83
2022/05/20 03:06:26;;;;;;;5.18;3.72;;;;;;;;;;5029924;28;20045;-83
2022/05/20 03:09:12;;;;;;;4.78;4.28;;;;;;;;;;5011663;28;20041;-83
2022/05/20 03:11:58;;;;;;;6.05;3.90;;;;;;;;;;5013609;28;20411;-83
2022/05/20 03:14:44;;;;;;;5.57;3.97;;;;;;;;;;5025454;28;20045;-83
2022/05/20 03:17:30;;;;;;;7.32;4.45;;;;;;;;;;5010797;28;20040;-83
2022/05/20 03:20:16;;;;;;;5.28;4.22;;;;;;;;;;5024200;28;20134;-83
2022/05/20 03:23:02;;;;;;;5.07;4.20;;;;;;;;;;5026222;28;20052;-83
2022/05/20 03:25:48;;;;;;;5.25;3.97;;;;;;;;;;5026702;28;20507;-83
2022/05/20 03:28:35;;;;;;;4.40;3.42;;;;;;;;;;5038073;28;20044;-83
2022/05/20 03:31:20;;;;;;;5.75;4.03;;;;;;;;;;5025919;28;20056;-83
2022/05/20 03:34:06;;;;;;;6.88;3.85;;;;;;;;;;5026015;28;20041;-83
2022/05/20 03:36:52;;;;;;;7.32;3.60;;;;;;;;;;5025922;28;20060;-83
2022/05/20 03:39:38;;;;;;;8.45;4.20;;;;;;;;;;5025650;28;20090;-83
2022/05/20 03:42:24;;;;;;;5.53;4.13;;;;;;;;;;5025414;28;20048;-83
2022/05/20 03:45:10;;;;;;;6.40;4.25;;;;;;;;;;5012059;28;20179;-83
2022/05/20 03:47:56;;;;;;;4.93;3.97;;;;;;;;;;5013853;28;20069;-83
2022/05/20 03:50:42;;;;;;;6.95;4.78;;;;;;;;;;5011156;28;20116;-83
2022/05/20 03:53:27;;;;;;;6.35;4.50;;;;;;;;;;5024425;28;20049;-83
2022/05/20 03:56:13;;;;;;;6.10;4.10;;;;;;;;;;5024411;28;20052;-83
2022/05/20 03:58:59;;;;;;;6.07;4.15;;;;;;;;;;5023908;28;20140;-83
2022/05/20 04:01:57;;;;;;;7.53;4.40;;;;;;;;;;5023704;28;20037;-83
2022/05/20 04:04:46;;;;;;;4.82;3.80;;;;;;;;;;5026606;28;20052;-83
2022/05/20 04:07:33;;;;;;;6.53;4.45;;;;;;;;;;5024896;28;20048;-83
2022/05/20 04:10:18;;;;;;;7.47;4.47;;;;;;;;;;5025277;28;20041;-83
2022/05/20 04:13:05;;;;;;;6.05;4.93;;;;;;;;;;5024005;28;20037;-83
2022/05/20 04:15:54;;;;;;;5.65;4.65;;;;;;;;;;5024618;28;20045;-83
2022/05/20 04:18:41;;;;;;;7.55;4.20;;;;;;;;;;5025408;28;20049;-83
2022/05/20 04:21:26;;;;;;;5.20;4.45;;;;;;;;;;5011053;28;20049;-83
2022/05/20 04:24:12;;;;;;;5.53;4.40;;;;;;;;;;5025761;28;20045;-83
2022/05/20 04:26:58;;;;;;;6.80;4.13;;;;;;;;;;5026014;28;20045;-83
2022/05/20 04:29:43;;;;;;;6.07;3.80;;;;;;;;;;5036294;28;20132;-83
2022/05/20 04:32:29;;;;;;;5.28;3.95;;;;;;;;;;5004819;28;20045;-83
2022/05/20 04:35:15;;;;;;;6.68;4.80;;;;;;;;;;5004719;28;20064;-83
2022/05/20 04:38:01;;;;;;;5.05;4.10;;;;;;;;;;5005171;28;20044;-83
2022/05/20 04:46:56;;;;;;;5.85;3.72;;;;;;;;;;5004261;28;20052;-82
2022/05/20 04:47:00;;;;;;;6.32;4.43;;;;;;;;;;5020172;28;20053;-83
2022/05/20 04:49:46;;;;;;;6.85;4.55;;;;;;;;;;5005839;28;20075;-83
2022/05/20 04:52:32;;;;;;;5.28;4.72;;;;;;;;;;5022059;28;20046;-82
2022/05/20 04:55:27;;;;;;;5.32;4.03;;;;;;;;;;4990768;28;20045;-86
2022/05/20 04:58:14;;;;;;;5.38;4.25;;;;;;;;;;5025443;28;20037;-86
2022/05/20 05:01:00;;;;;;;4.65;3.85;;;;;;;;;;5023509;28;20043;-83
2022/05/20 05:03:46;;;;;;;6.10;3.90;;;;;;;;;;5013592;28;20423;-83
2022/05/20 05:06:32;;;;;;;10.65;5.07;;;;;;;;;;5003256;28;20050;-82
2022/05/20 05:09:18;;;;;;;8.45;4.93;;;;;;;;;;5003142;28;20508;-83
2022/05/20 05:12:04;;;;;;;11.70;4.53;;;;;;;;;;5003156;28;20143;-84
2022/05/20 05:14:51;;;;;;;12.38;5.93;;;;;;;;;;5017011;28;20095;-84
2022/05/20 05:20:50;;;;;;;7.38;4.10;;;;;;;;;;5028716;28;20044;-82
2022/05/20 05:23:36;;;;;;;8.88;4.45;;;;;;;;;;5055072;28;20040;-83
2022/05/20 05:26:22;;;;;;;7.10;4.65;;;;;;;;;;5028637;28;20044;-82
2022/05/20 05:29:08;;;;;;;6.30;4.13;;;;;;;;;;5027709;28;20550;-82
2022/05/20 05:31:54;;;;;;;5.57;4.45;;;;;;;;;;5045701;28;20055;-82
2022/05/20 05:34:39;;;;;;;12.50;8.60;;;;;;;;;;5029668;28;20056;-83
2022/05/20 05:37:25;;;;;;;18.80;11.70;;;;;;;;;;5028331;28;20166;-83
2022/05/20 05:40:15;;;;;;;14.63;9.55;;;;;;;;;;5041677;28;20036;-84
2022/05/20 05:43:01;;;;;;;18.60;11.88;;;;;;;;;;5028575;28;20162;-84
2022/05/20 05:45:47;;;;;;;17.38;12.02;;;;;;;;;;5042194;28;20040;-82
2022/05/20 05:48:33;;;;;;;19.83;12.27;;;;;;;;;;5041522;28;20044;-83
2022/05/20 05:51:19;;;;;;;14.50;12.88;;;;;;;;;;5041319;28;20123;-83
2022/05/20 05:54:05;;;;;;;17.20;13.82;;;;;;;;;;5026080;28;20071;-83
2022/05/20 05:56:51;;;;;;;16.65;12.10;;;;;;;;;;5021903;28;20507;-84
2022/05/20 05:59:37;;;;;;;13.98;10.57;;;;;;;;;;5036200;28;20053;-83
2022/05/20 06:02:22;;;;;;;16.27;11.65;;;;;;;;;;5036421;28;20053;-84
2022/05/20 06:05:08;;;;;;;14.90;11.52;;;;;;;;;;5028989;28;20428;-83
2022/05/20 06:07:54;;;;;;;16.17;12.55;;;;;;;;;;5003696;28;20103;-85
2022/05/20 06:10:42;;;;;;;21.42;15.13;;;;;;;;;;5002460;28;20041;-85
2022/05/20 06:13:29;;;;;;;22.33;18.38;;;;;;;;;;5002912;28;20072;-85
2022/05/20 06:16:19;;;;;;;19.85;17.63;;;;;;;;;;5002558;28;20041;-85
2022/05/20 06:19:07;;;;;;;26.75;21.27;;;;;;;;;;5022512;28;20510;-84
2022/05/20 06:21:32;;;;;;;22.00;19.45;;;;;;;;;;5017125;28;20029;-84
2022/05/20 06:24:00;;;;;;;23.27;18.83;;;;;;;;;;5033317;28;20095;-85
2022/05/20 06:26:27;;;;;;;27.92;22.10;;;;;;;;;;5009639;28;20053;-81
2022/05/20 06:28:52;;;;;;;23.73;18.80;;;;;;;;;;5016106;28;20060;-81
2022/05/20 06:31:18;;;;;;;23.98;18.52;;;;;;;;;;5049821;28;20041;-81
2022/05/20 06:33:43;;;;;;;24.10;18.90;;;;;;;;;;5032868;28;20045;-81
2022/05/20 06:41:36;;;;;;;21.73;17.90;;;;;;;;;;5016337;28;20120;-81
2022/05/20 06:44:02;;;;;;;23.83;17.85;;;;;;;;;;5013080;28;20408;-81
2022/05/20 06:46:28;;;;;;;22.52;18.98;;;;;;;;;;4997090;28;20462;-81
2022/05/20 06:48:55;;;;;;;22.58;17.83;;;;;;;;;;5004168;28;20037;-80
2022/05/20 06:51:26;;;;;;;23.88;18.50;;;;;;;;;;5016587;28;20033;-81
2022/05/20 06:53:52;;;;;;;24.23;19.77;;;;;;;;;;5000151;28;20114;-81
2022/05/20 06:56:18;;;;;;;20.58;18.30;;;;;;;;;;5016609;28;20037;-81
2022/05/20 06:58:44;;;;;;;25.75;17.63;;;;;;;;;;5032850;28;20574;-81
2022/05/20 07:01:09;;;;;;;20.70;16.25;;;;;;;;;;5000214;28;20037;-81
2022/05/20 07:03:35;;;;;;;21.13;16.05;;;;;;;;;;5000206;28;20103;-81
2022/05/20 07:06:02;;;;;;;18.00;14.52;;;;;;;;;;5004505;28;20049;-81
2022/05/20 07:08:27;;;;;;;21.33;14.80;;;;;;;;;;4984096;28;20033;-81
2022/05/20 07:10:52;;;;;;;18.95;14.20;;;;;;;;;;4984165;28;20038;-81
2022/05/20 07:13:18;;;;;;;19.48;14.52;;;;;;;;;;4983805;28;20036;-80
2022/05/20 07:15:43;;;;;;;19.73;15.00;;;;;;;;;;4983824;28;20052;-81
2022/05/20 07:18:09;;;;;;;22.00;14.85;;;;;;;;;;5000182;28;20033;-81
2022/05/20 07:20:34;;;;;;;20.02;14.95;;;;;;;;;;5018808;28;20041;-80
2022/05/20 07:23:00;;;;;;;17.98;14.82;;;;;;;;;;5019404;28;20529;-80
2022/05/20 07:25:25;;;;;;;19.30;14.55;;;;;;;;;;5018067;28;20040;-80
2022/05/20 07:27:51;;;;;;;16.33;13.18;;;;;;;;;;4999573;28;20173;-80
2022/05/20 07:30:16;;;;;;;16.40;13.13;;;;;;;;;;5032151;28;20079;-80
2022/05/20 07:32:42;;;;;;;18.20;12.48;;;;;;;;;;5019086;28;20462;-79
2022/05/20 07:35:09;;;;;;;16.85;14.18;;;;;;;;;;5019414;28;20048;-80
2022/05/20 07:37:35;;;;;;;17.45;14.63;;;;;;;;;;5003373;28;20111;-80
2022/05/20 07:40:00;;;;;;;18.88;15.50;;;;;;;;;;5003369;28;20583;-80
2022/05/20 07:42:26;;;;;;;21.83;17.42;;;;;;;;;;4985777;28;20527;-80
2022/05/20 07:44:51;;;;;;;23.17;15.32;;;;;;;;;;5002923;28;20040;-81
2022/05/20 07:47:17;;;;;;;19.55;14.50;;;;;;;;;;5002758;28;20033;-81
2022/05/20 07:49:43;;;;;;;27.88;15.15;;;;;;;;;;5003505;28;20037;-81
2022/05/20 07:52:10;;;;;;;18.17;13.63;;;;;;;;;;5019216;28;20117;-81
2022/05/20 07:54:38;;;;;;;23.83;16.98;;;;;;;;;;5019111;28;20495;-81
2022/05/20 07:57:07;;;;;;;22.20;14.65;;;;;;;;;;5019132;28;20117;-80
2022/05/20 07:59:52;;;;;;;22.23;16.05;;;;;;;;;;5019436;28;20491;-80
2022/05/20 08:02:21;;;;;;;21.00;15.70;;;;;;;;;;5018947;28;20079;-81
2022/05/20 08:05:01;;;;;;;20.83;15.52;;;;;;;;;;5013561;28;20109;-81
2022/05/20 08:07:34;;;;;;;22.90;15.50;;;;;;;;;;5002542;28;20037;-80
2022/05/20 08:10:11;;;;;;;22.13;14.25;;;;;;;;;;4982986;28;20082;-80
2022/05/20 08:12:37;;;;;;;19.00;13.23;;;;;;;;;;5000318;28;20106;-81
2022/05/20 08:15:02;;;;;;;19.42;13.77;;;;;;;;;;4982667;28;20029;-81
2022/05/20 08:17:29;;;;;;;17.63;13.57;;;;;;;;;;4982381;28;20462;-81
2022/05/20 08:19:54;;;;;;;18.15;14.40;;;;;;;;;;4982928;28;20034;-80
2022/05/20 08:22:23;;;;;;;20.35;14.00;;;;;;;;;;4999322;28;20038;-81
2022/05/20 08:24:54;;;;;;;16.13;11.98;;;;;;;;;;4999455;28;20112;-81
2022/05/20 08:27:20;;;;;;;20.17;14.15;;;;;;;;;;5017832;28;20061;-81
2022/05/20 08:29:46;;;;;;;16.40;11.60;;;;;;;;;;5016956;28;20068;-81
2022/05/20 08:32:12;;;;;;;19.20;12.05;;;;;;;;;;5034989;28;20048;-81
2022/05/20 08:34:38;;;;;;;14.52;10.13;;;;;;;;;;5035264;28;20116;-81
2022/05/20 08:37:04;;;;;;;16.67;12.43;;;;;;;;;;5002050;28;20043;-81
2022/05/20 08:39:29;;;;;;;15.10;11.68;;;;;;;;;;5050367;28;20396;-80
2022/05/20 08:41:54;;;;;;;18.05;12.30;;;;;;;;;;5017951;28;20025;-80
2022/05/20 08:44:21;;;;;;;21.08;13.52;;;;;;;;;;5018246;28;20109;-81
2022/05/20 08:46:47;;;;;;;13.85;8.70;;;;;;;;;;5001475;28;20063;-81
2022/05/20 08:49:14;;;;;;;13.65;9.95;;;;;;;;;;5018225;28;20506;-81
2022/05/20 08:51:41;;;;;;;20.05;10.23;;;;;;;;;;5018364;28;20400;-81
2022/05/20 08:54:07;;;;;;;14.13;9.07;;;;;;;;;;5018459;28;20040;-81
2022/05/20 08:56:32;;;;;;;13.73;10.02;;;;;;;;;;5034721;28;20411;-81
2022/05/20 08:59:02;;;;;;;17.80;10.52;;;;;;;;;;5001285;28;20044;-81
2022/05/20 09:01:33;;;;;;;15.93;11.98;;;;;;;;;;5001675;28;20072;-81
2022/05/20 09:03:59;;;;;;;21.65;13.75;;;;;;;;;;5034197;28;20056;-80
2022/05/20 09:06:25;;;;;;;17.17;10.85;;;;;;;;;;5015956;28;20057;-80
2022/05/20 09:09:11;;;;;;;16.30;10.48;;;;;;;;;;4981697;28;20045;-81
2022/05/20 09:11:38;;;;;;;18.55;12.40;;;;;;;;;;4998119;28;20068;-81
2022/05/20 09:17:21;;;;;;;14.43;10.98;;;;;;;;;;5030918;28;20045;-80
2022/05/20 09:20:01;;;;;;;22.35;12.23;;;;;;;;;;5028915;28;20041;-80
2022/05/20 09:22:32;;;;;;;15.73;11.43;;;;;;;;;;5033722;28;20119;-81
2022/05/20 09:24:57;;;;;;;17.75;10.65;;;;;;;;;;5017397;28;20033;-79
2022/05/20 09:27:31;;;;;;;13.07;10.00;;;;;;;;;;5012941;28;20040;-80
2022/05/20 09:29:59;;;;;;;12.70;8.27;;;;;;;;;;4995043;28;20037;-80
2022/05/20 09:32:45;;;;;;;12.60;8.60;;;;;;;;;;5012401;28;20042;-80
2022/05/20 09:35:16;;;;;;;12.43;8.07;;;;;;;;;;5033222;28;20052;-80
2022/05/20 09:37:42;;;;;;;9.23;7.20;;;;;;;;;;5016927;28;20553;-80
2022/05/20 09:40:29;;;;;;;9.85;6.50;;;;;;;;;;5000990;28;20272;-80
2022/05/20 09:43:09;;;;;;;10.73;6.50;;;;;;;;;;5017063;28;20036;-79
2022/05/20 09:45:48;;;;;;;12.25;7.40;;;;;;;;;;5018080;28;20044;-80
2022/05/20 09:48:16;;;;;;;9.00;6.60;;;;;;;;;;5017722;28;20537;-81
2022/05/20 09:50:42;;;;;;;7.22;5.60;;;;;;;;;;5017491;28;20442;-81
2022/05/20 09:53:10;;;;;;;11.13;6.53;;;;;;;;;;5017051;28;20050;-82
2022/05/20 09:55:37;;;;;;;9.65;5.35;;;;;;;;;;5033919;28;20048;-82
2022/05/20 09:58:15;;;;;;;9.95;5.35;;;;;;;;;;5016942;28;20033;-82
2022/05/20 10:00:51;;;;;;;7.68;5.20;;;;;;;;;;5001040;28;20068;-81
2022/05/20 10:03:24;;;;;;;7.13;5.00;;;;;;;;;;5017032;28;20056;-80
2022/05/20 10:05:52;;;;;;;10.38;5.80;;;;;;;;;;5029743;28;20060;-80
2022/05/20 10:09:02;;;;;;;8.70;5.03;;;;;;;;;;5013954;28;20084;-80
2022/05/20 10:11:43;;;;;;;6.93;4.82;;;;;;;;;;5009953;28;20423;-80
2022/05/20 10:14:22;;;;;;;7.75;4.00;;;;;;;;;;5030381;28;20042;-80
2022/05/20 10:17:05;;;;;;;8.93;4.10;;;;;;;;;;4997988;28;20071;-80
2022/05/20 10:19:42;;;;;;;10.63;5.88;;;;;;;;;;5013855;28;20090;-82
2022/05/20 10:22:11;;;;;;;7.88;5.60;;;;;;;;;;4997262;28;20037;-80
2022/05/20 10:24:51;;;;;;;7.25;5.68;;;;;;;;;;5013883;28;20050;-79
2022/05/20 10:27:20;;;;;;;10.70;5.88;;;;;;;;;;5002642;28;20111;-79
2022/05/20 10:33:15;;;;;;;7.30;4.47;;;;;;;;;;5038975;28;20048;-80
2022/05/20 10:35:49;;;;;;;5.35;4.50;;;;;;;;;;5000492;28;20045;-80
2022/05/20 10:38:33;;;;;;;5.30;4.45;;;;;;;;;;5033146;28;20064;-79
2022/05/20 10:40:59;;;;;;;7.15;4.13;;;;;;;;;;5019397;28;20033;-80
2022/05/20 10:49:22;;;;;;;5.47;4.07;;;;;;;;;;5039836;28;20131;-79
2022/05/20 10:52:26;;;;;;;5.93;4.32;;;;;;;;;;5037194;28;20124;-79
2022/05/20 10:55:40;;;;;;;6.93;4.38;;;;;;;;;;5028066;28;20434;-79
2022/05/20 10:58:33;;;;;;;6.10;4.30;;;;;;;;;;4940995;28;20565;-79
2022/05/20 11:00:59;;;;;;;6.97;4.40;;;;;;;;;;4987096;28;20091;-79
2022/05/20 11:03:37;;;;;;;7.32;4.05;;;;;;;;;;4999978;28;20050;-79
2022/05/20 11:06:05;;;;;;;6.53;4.20;;;;;;;;;;5011651;28;20067;-80
2022/05/20 11:08:51;;;;;;;4.10;3.45;;;;;;;;;;5034410;28;20042;-79
2022/05/20 11:11:16;;;;;;;8.35;4.47;;;;;;;;;;5016681;28;20042;-78
2022/05/20 11:14:01;;;;;;;5.53;3.63;;;;;;;;;;5011205;28;20037;-79
2022/05/20 11:16:42;;;;;;;6.82;3.90;;;;;;;;;;5016123;28;20120;-79
2022/05/20 11:19:32;;;;;;;4.03;3.55;;;;;;;;;;5016342;28;20052;-79
2022/05/20 11:22:34;;;;;;;5.95;3.92;;;;;;;;;;5037426;28;20049;-79
2022/05/20 11:25:07;;;;;;;6.85;4.03;;;;;;;;;;4991476;28;20045;-79
2022/05/20 11:27:54;;;;;;;8.82;3.88;;;;;;;;;;5014765;28;20135;-79
2022/05/20 11:30:30;;;;;;;5.45;4.25;;;;;;;;;;5032295;28;20068;-79
2022/05/20 11:33:06;;;;;;;5.72;3.83;;;;;;;;;;5030626;28;20095;-79
2022/05/20 11:35:32;;;;;;;5.18;4.68;;;;;;;;;;5016232;28;20080;-79
2022/05/20 11:38:30;;;;;;;7.43;3.85;;;;;;;;;;5023810;28;20082;-79
2022/05/20 11:41:11;;;;;;;7.28;3.80;;;;;;;;;;5035569;28;20049;-81
2022/05/20 11:43:42;;;;;;;8.07;5.32;;;;;;;;;;5035606;28;20076;-80
2022/05/20 11:46:15;;;;;;;6.88;4.63;;;;;;;;;;5053366;28;20516;-80
2022/05/20 11:48:46;;;;;;;6.20;3.85;;;;;;;;;;5019398;28;20044;-79
2022/05/20 11:51:30;;;;;;;4.75;3.97;;;;;;;;;;5034960;28;20049;-80
2022/05/20 11:54:00;;;;;;;5.68;4.00;;;;;;;;;;5035662;28;20036;-80
2022/05/20 11:56:34;;;;;;;5.93;4.43;;;;;;;;;;5052139;28;20032;-80
2022/05/20 11:59:23;;;;;;;5.82;3.78;;;;;;;;;;5019568;28;20060;-80
2022/05/20 12:01:50;;;;;;;6.97;3.70;;;;;;;;;;5006058;28;20135;-80
2022/05/20 12:04:16;;;;;;;6.43;4.03;;;;;;;;;;5019176;28;20037;-80
2022/05/20 12:06:54;;;;;;;5.97;4.13;;;;;;;;;;5022432;28;20517;-80
2022/05/20 12:09:28;;;;;;;7.53;4.32;;;;;;;;;;5055370;28;20032;-80
2022/05/20 12:12:24;;;;;;;8.27;4.18;;;;;;;;;;5055001;28;20071;-80
2022/05/20 12:15:07;;;;;;;5.57;4.10;;;;;;;;;;5055086;28;20040;-81
2022/05/20 12:17:50;;;;;;;7.13;4.28;;;;;;;;;;5034749;28;20040;-80
2022/05/20 12:26:05;;;;;;;7.15;3.78;;;;;;;;;;5002003;28;20045;-81
2022/05/20 12:28:33;;;;;;;6.70;4.40;;;;;;;;;;5018124;28;20116;-80
2022/05/20 12:31:23;;;;;;;7.35;4.15;;;;;;;;;;5018200;28;20044;-80
2022/05/20 12:34:05;;;;;;;6.38;4.25;;;;;;;;;;5039886;28;20106;-80
2022/05/20 12:36:30;;;;;;;;;;;;;;;;;;5018584;28;20834;-81
2022/05/20 12:39:08;;;;;;;7.43;4.47;;;;;;;;;;5034901;28;19931;-80
2022/05/20 12:41:49;;;;;;;6.53;3.67;;;;;;;;;;5035076;28;20051;-81
2022/05/20 12:44:20;;;;;;;5.85;4.25;;;;;;;;;;5019256;28;20087;-81
2022/05/20 12:47:04;;;;;;;9.73;4.22;;;;;;;;;;5014277;28;20037;-80
2022/05/20 12:49:38;;;;;;;7.38;4.20;;;;;;;;;;5014945;28;20068;-81
2022/05/20 12:52:17;;;;;;;8.43;4.43;;;;;;;;;;4998740;28;20554;-80
2022/05/20 12:54:48;;;;;;;9.85;4.03;;;;;;;;;;4998543;28;20500;-80
2022/05/20 12:57:15;;;;;;;5.85;3.80;;;;;;;;;;5014647;28;20041;-81
2022/05/20 12:59:42;;;;;;;6.70;3.92;;;;;;;;;;4998256;28;20419;-81
2022/05/20 13:02:12;;;;;;;7.80;4.43;;;;;;;;;;5013874;28;20096;-81
2022/05/20 13:04:43;;;;;;;6.60;4.10;;;;;;;;;;5014384;28;20068;-82
2022/05/20 13:07:11;;;;;;;6.05;4.07;;;;;;;;;;4998483;28;20041;-81
2022/05/20 13:09:39;;;;;;;11.10;4.60;;;;;;;;;;4998871;28;20626;-81
2022/05/20 13:12:07;;;;;;;9.75;5.10;;;;;;;;;;4998061;28;20065;-81
2022/05/20 13:14:33;;;;;;;9.77;4.15;;;;;;;;;;4997946;28;20079;-81
2022/05/20 13:17:01;;;;;;;9.07;4.75;;;;;;;;;;4998233;28;20033;-81
2022/05/20 13:19:46;;;;;;;6.75;3.97;;;;;;;;;;4982467;28;20036;-81
2022/05/20 13:22:13;;;;;;;5.38;3.95;;;;;;;;;;4997991;28;20507;-81
2022/05/20 13:24:39;;;;;;;9.43;4.25;;;;;;;;;;4998286;28;20033;-81
2022/05/20 13:27:09;;;;;;;6.40;3.92;;;;;;;;;;5012046;28;20039;-81
2022/05/20 13:29:35;;;;;;;7.03;4.57;;;;;;;;;;5000412;28;20032;-81
2022/05/20 13:32:13;;;;;;;6.25;3.95;;;;;;;;;;5017514;28;20060;-81
2022/05/20 13:34:43;;;;;;;6.80;4.30;;;;;;;;;;5003863;28;20037;-81
2022/05/20 13:37:10;;;;;;;5.75;3.53;;;;;;;;;;5031398;28;20033;-81
2022/05/20 13:39:36;;;;;;;6.18;3.75;;;;;;;;;;5015812;28;20038;-81
2022/05/20 13:42:01;;;;;;;7.05;3.85;;;;;;;;;;5013843;28;20034;-80
2022/05/20 13:44:33;;;;;;;6.20;3.20;;;;;;;;;;4997245;28;20050;-81
2022/05/20 13:49:45;;;;;;;4.82;3.10;;;;;;;;;;5017064;28;20109;-81
2022/05/20 13:52:12;;;;;;;6.30;2.80;;;;;;;;;;5013889;28;20450;-81
2022/05/20 13:54:41;;;;;;;5.60;2.67;;;;;;;;;;5017672;28;20388;-81
2022/05/20 13:57:18;;;;;;;5.80;2.67;;;;;;;;;;5016952;28;20056;-82
2022/05/20 13:59:43;;;;;;;2.72;2.08;;;;;;;;;;5018084;28;20536;-82
2022/05/20 14:02:08;;;;;;;7.68;2.75;;;;;;;;;;5001178;28;20024;-82
2022/05/20 14:04:41;;;;;;;4.13;1.90;;;;;;;;;;5012293;28;20040;-81
2022/05/20 14:07:09;;;;;;;4.80;2.25;;;;;;;;;;5032118;28;20115;-81
2022/05/20 14:09:40;;;;;;;5.15;2.38;;;;;;;;;;5001315;28;20048;-82
2022/05/20 14:12:09;;;;;;;4.80;2.10;;;;;;;;;;5017102;28;20178;-81
2022/05/20 14:14:35;;;;;;;6.32;2.13;;;;;;;;;;5003335;28;20037;-82
2022/05/20 14:17:01;;;;;;;5.75;1.92;;;;;;;;;;5037674;28;20035;-82
2022/05/20 14:19:34;;;;;;;3.28;1.80;;;;;;;;;;5021610;28;20064;-82
2022/05/20 14:22:01;;;;;;;3.40;1.83;;;;;;;;;;5038355;28;20037;-81
2022/05/20 14:24:32;;;;;;;4.60;2.03;;;;;;;;;;5005119;28;20037;-81
2022/05/20 14:26:57;;;;;;;3.45;1.60;;;;;;;;;;5010757;28;20108;-82
2022/05/20 14:29:30;;;;;;;4.57;1.65;;;;;;;;;;5035902;28;20155;-82
2022/05/20 14:32:15;;;;;;;4.97;1.67;;;;;;;;;;5037630;28;20032;-81
2022/05/20 14:34:51;;;;;;;5.03;1.50;;;;;;;;;;5037094;28;20094;-81
2022/05/20 14:37:18;;;;;;;3.05;1.75;;;;;;;;;;5037021;28;20519;-81
2022/05/20 14:39:49;;;;;;;4.93;1.55;;;;;;;;;;5004145;28;20069;-81
2022/05/20 14:42:23;;;;;;;3.53;1.20;;;;;;;;;;5003281;28;20044;-81
2022/05/20 14:44:50;;;;;;;2.50;1.52;;;;;;;;;;5036631;28;20267;-81
2022/05/20 14:47:20;;;;;;;3.58;1.33;;;;;;;;;;4987638;28;20518;-81
2022/05/20 14:50:08;;;;;;;2.30;1.42;;;;;;;;;;5037529;28;20032;-81
2022/05/20 14:52:54;;;;;;;3.10;1.30;;;;;;;;;;5006541;28;20037;-81
2022/05/20 14:55:26;;;;;;;3.53;1.48;;;;;;;;;;5036755;28;20059;-81
2022/05/20 14:58:24;;;;;;;2.60;1.35;;;;;;;;;;5004207;28;20044;-81
2022/05/20 15:01:13;;;;;;;3.47;1.10;;;;;;;;;;5016042;28;20108;-82
2022/05/20 15:03:44;;;;;;;2.40;1.27;;;;;;;;;;5035854;28;20045;-81
2022/05/20 15:06:25;;;;;;;2.90;1.45;;;;;;;;;;4988315;28;20030;-81
2022/05/20 15:08:50;;;;;;;3.00;1.10;;;;;;;;;;5016941;28;20033;-81
2022/05/20 15:11:39;;;;;;;2.63;1.33;;;;;;;;;;5000314;28;20060;-82
2022/05/20 15:14:05;;;;;;;1.80;1.13;;;;;;;;;;5033513;28;20112;-83
2022/05/20 15:16:31;;;;;;;9.90;7.03;;;;;;;;;;5000400;28;20168;-82
2022/05/20 15:18:57;;;;;;;3.10;1.88;;;;;;;;;;5000596;28;20038;-82
2022/05/20 15:21:29;;;;;;;8.10;5.13;;;;;;;;;;5000474;28;20049;-82
2022/05/20 15:24:07;;;;;;;12.45;7.78;;;;;;;;;;5000237;28;20063;-83
2022/05/20 15:26:35;;;;;;;14.05;9.23;;;;;;;;;;5009426;28;20071;-82
2022/05/20 15:29:00;;;;;;;13.40;8.63;;;;;;;;;;5003403;28;20457;-82
2022/05/20 15:37:07;;;;;;;8.68;5.80;;;;;;;;;;5035228;28;20040;-82
2022/05/20 15:39:37;;;;;;;7.53;4.80;;;;;;;;;;5003841;28;20461;-82
2022/05/20 15:42:02;;;;;;;7.55;4.53;;;;;;;;;;5003091;28;20119;-82
2022/05/20 15:44:28;;;;;;;6.75;4.32;;;;;;;;;;5003061;28;20124;-82
2022/05/20 15:46:54;;;;;;;6.97;3.85;;;;;;;;;;5019283;28;20055;-82
2022/05/20 15:49:19;;;;;;;5.10;3.20;;;;;;;;;;5008079;28;20029;-83
2022/05/20 15:51:44;;;;;;;6.32;3.45;;;;;;;;;;5006293;28;20061;-82
2022/05/20 15:54:11;;;;;;;5.07;2.97;;;;;;;;;;5002656;28;20037;-81
2022/05/20 15:56:36;;;;;;;4.60;2.67;;;;;;;;;;5019317;28;20424;-81
2022/05/20 15:59:02;;;;;;;4.35;2.40;;;;;;;;;;5018998;28;20033;-80
2022/05/20 16:01:27;;;;;;;5.50;2.40;;;;;;;;;;5002884;28;20036;-80
2022/05/20 16:03:53;;;;;;;3.75;1.88;;;;;;;;;;5018896;28;20067;-81
2022/05/20 16:06:20;;;;;;;5.28;2.13;;;;;;;;;;4976344;28;20128;-81
2022/05/20 16:08:46;;;;;;;3.80;2.28;;;;;;;;;;4983343;28;20068;-80
2022/05/20 16:11:11;;;;;;;3.65;1.77;;;;;;;;;;4983269;28;20068;-80
2022/05/20 16:13:37;;;;;;;4.70;2.33;;;;;;;;;;4982810;28;20080;-80
2022/05/20 16:16:03;;;;;;;2.95;1.90;;;;;;;;;;4982762;28;20415;-80
2022/05/20 16:18:28;;;;;;;3.83;1.75;;;;;;;;;;4999413;28;20475;-81
2022/05/20 16:20:56;;;;;;;2.65;1.63;;;;;;;;;;4983053;28;20030;-81
2022/05/20 16:23:24;;;;;;;2.65;1.60;;;;;;;;;;4999753;28;20049;-81